sensor_id;sensor_type;location;lat;lon;timestamp;temperature;humidity
15450;DHT22;7826;49.784;9.934;2024-03-22T00:01:49;7.20;90.70
15450;DHT22;7826;49.784;9.934;2024-03-22T00:04:16;7.20;91.70
15450;DHT22;7826;49.784;9.934;2024-03-22T00:06:43;7.20;80.60
15450;DHT22;7826;49.784;9.934;2024-03-22T00:09:10;7.20;78.00
15450;DHT22;7826;49.784;9.934;2024-03-22T00:11:37;7.20;75.90
15450;DHT22;7826;49.784;9.934;2024-03-22T00:14:03;7.20;80.40
15450;DHT22;7826;49.784;9.934;2024-03-22T00:16:30;7.10;94.30
15450;DHT22;7826;49.784;9.934;2024-03-22T00:18:56;7.00;93.00
15450;DHT22;7826;49.784;9.934;2024-03-22T00:21:22;7.10;81.00
15450;DHT22;7826;49.784;9.934;2024-03-22T00:23:48;7.10;71.20
15450;DHT22;7826;49.784;9.934;2024-03-22T00:26:15;7.00;88.00
15450;DHT22;7826;49.784;9.934;2024-03-22T00:28:42;6.90;98.30
15450;DHT22;7826;49.784;9.934;2024-03-22T00:31:09;7.00;89.10
15450;DHT22;7826;49.784;9.934;2024-03-22T00:33:35;7.00;90.10
15450;DHT22;7826;49.784;9.934;2024-03-22T00:36:03;7.10;77.10
15450;DHT22;7826;49.784;9.934;2024-03-22T00:38:29;7.00;94.80
15450;DHT22;7826;49.784;9.934;2024-03-22T00:40:55;7.10;88.10
15450;DHT22;7826;49.784;9.934;2024-03-22T00:43:22;7.20;77.00
15450;DHT22;7826;49.784;9.934;2024-03-22T00:45:48;7.10;86.90
15450;DHT22;7826;49.784;9.934;2024-03-22T00:48:14;7.00;91.40
15450;DHT22;7826;49.784;9.934;2024-03-22T00:50:40;7.10;83.40
15450;DHT22;7826;49.784;9.934;2024-03-22T00:53:06;7.00;92.50
15450;DHT22;7826;49.784;9.934;2024-03-22T00:55:34;7.00;90.30
15450;DHT22;7826;49.784;9.934;2024-03-22T00:58:00;7.10;77.00
15450;DHT22;7826;49.784;9.934;2024-03-22T01:00:26;7.00;79.40
15450;DHT22;7826;49.784;9.934;2024-03-22T01:02:52;7.00;77.20
15450;DHT22;7826;49.784;9.934;2024-03-22T01:05:19;7.00;80.40
15450;DHT22;7826;49.784;9.934;2024-03-22T01:07:45;7.00;66.90
15450;DHT22;7826;49.784;9.934;2024-03-22T01:10:11;7.00;81.90
15450;DHT22;7826;49.784;9.934;2024-03-22T01:12:39;6.90;86.50
15450;DHT22;7826;49.784;9.934;2024-03-22T01:15:06;6.90;85.40
15450;DHT22;7826;49.784;9.934;2024-03-22T01:17:33;6.90;85.00
15450;DHT22;7826;49.784;9.934;2024-03-22T01:19:59;7.10;71.30
15450;DHT22;7826;49.784;9.934;2024-03-22T01:22:25;7.00;64.80
15450;DHT22;7826;49.784;9.934;2024-03-22T01:24:52;7.00;65.40
15450;DHT22;7826;49.784;9.934;2024-03-22T01:27:19;6.90;72.50
15450;DHT22;7826;49.784;9.934;2024-03-22T01:29:46;6.90;73.70
15450;DHT22;7826;49.784;9.934;2024-03-22T01:32:13;6.80;77.60
15450;DHT22;7826;49.784;9.934;2024-03-22T01:34:39;6.90;71.70
15450;DHT22;7826;49.784;9.934;2024-03-22T01:37:06;6.90;68.60
15450;DHT22;7826;49.784;9.934;2024-03-22T01:39:32;6.90;73.90
15450;DHT22;7826;49.784;9.934;2024-03-22T01:41:58;7.00;57.10
15450;DHT22;7826;49.784;9.934;2024-03-22T01:44:32;6.90;73.40
15450;DHT22;7826;49.784;9.934;2024-03-22T01:46:58;6.90;65.30
15450;DHT22;7826;49.784;9.934;2024-03-22T01:49:28;6.90;69.70
15450;DHT22;7826;49.784;9.934;2024-03-22T01:51:55;6.90;63.10
15450;DHT22;7826;49.784;9.934;2024-03-22T01:54:21;6.90;70.30
15450;DHT22;7826;49.784;9.934;2024-03-22T01:56:48;6.90;70.10
15450;DHT22;7826;49.784;9.934;2024-03-22T01:59:14;6.90;61.10
15450;DHT22;7826;49.784;9.934;2024-03-22T02:01:41;7.00;57.50
15450;DHT22;7826;49.784;9.934;2024-03-22T02:04:07;6.90;57.90
15450;DHT22;7826;49.784;9.934;2024-03-22T02:06:34;7.00;56.60
15450;DHT22;7826;49.784;9.934;2024-03-22T02:09:00;7.00;58.30
15450;DHT22;7826;49.784;9.934;2024-03-22T02:11:27;6.80;66.90
15450;DHT22;7826;49.784;9.934;2024-03-22T02:13:53;6.80;71.40
15450;DHT22;7826;49.784;9.934;2024-03-22T02:16:19;6.80;67.50
15450;DHT22;7826;49.784;9.934;2024-03-22T02:18:45;6.90;60.20
15450;DHT22;7826;49.784;9.934;2024-03-22T02:21:11;6.90;59.10
15450;DHT22;7826;49.784;9.934;2024-03-22T02:23:39;6.90;58.70
15450;DHT22;7826;49.784;9.934;2024-03-22T02:26:06;6.90;60.90
15450;DHT22;7826;49.784;9.934;2024-03-22T02:28:33;7.00;55.40
15450;DHT22;7826;49.784;9.934;2024-03-22T02:31:00;7.00;55.60
15450;DHT22;7826;49.784;9.934;2024-03-22T02:33:26;7.00;52.10
15450;DHT22;7826;49.784;9.934;2024-03-22T02:35:52;6.90;55.90
15450;DHT22;7826;49.784;9.934;2024-03-22T02:38:19;7.00;53.20
15450;DHT22;7826;49.784;9.934;2024-03-22T02:40:46;6.90;55.30
15450;DHT22;7826;49.784;9.934;2024-03-22T02:43:13;7.00;45.10
15450;DHT22;7826;49.784;9.934;2024-03-22T02:45:39;7.00;49.80
15450;DHT22;7826;49.784;9.934;2024-03-22T02:48:06;7.00;48.20
15450;DHT22;7826;49.784;9.934;2024-03-22T02:50:36;7.00;47.60
15450;DHT22;7826;49.784;9.934;2024-03-22T02:53:03;7.00;44.30
15450;DHT22;7826;49.784;9.934;2024-03-22T02:55:30;7.00;44.50
15450;DHT22;7826;49.784;9.934;2024-03-22T02:58:01;7.00;46.30
15450;DHT22;7826;49.784;9.934;2024-03-22T03:00:28;7.00;44.80
15450;DHT22;7826;49.784;9.934;2024-03-22T03:02:54;7.00;45.20
15450;DHT22;7826;49.784;9.934;2024-03-22T03:05:21;7.10;41.80
15450;DHT22;7826;49.784;9.934;2024-03-22T03:07:49;7.10;35.30
15450;DHT22;7826;49.784;9.934;2024-03-22T03:10:16;7.10;38.10
15450;DHT22;7826;49.784;9.934;2024-03-22T03:12:42;7.10;36.30
15450;DHT22;7826;49.784;9.934;2024-03-22T03:15:09;7.10;37.80
15450;DHT22;7826;49.784;9.934;2024-03-22T03:17:35;7.10;39.50
15450;DHT22;7826;49.784;9.934;2024-03-22T03:20:01;7.10;41.60
15450;DHT22;7826;49.784;9.934;2024-03-22T03:22:27;7.10;40.50
15450;DHT22;7826;49.784;9.934;2024-03-22T03:24:53;7.10;33.90
15450;DHT22;7826;49.784;9.934;2024-03-22T03:27:19;7.10;38.30
15450;DHT22;7826;49.784;9.934;2024-03-22T03:29:45;7.10;41.50
15450;DHT22;7826;49.784;9.934;2024-03-22T03:32:11;7.10;43.30
15450;DHT22;7826;49.784;9.934;2024-03-22T03:34:37;7.10;37.40
15450;DHT22;7826;49.784;9.934;2024-03-22T03:37:04;7.00;40.50
15450;DHT22;7826;49.784;9.934;2024-03-22T03:39:30;7.10;40.50
15450;DHT22;7826;49.784;9.934;2024-03-22T03:41:56;7.10;31.20
15450;DHT22;7826;49.784;9.934;2024-03-22T03:44:22;7.00;40.10
15450;DHT22;7826;49.784;9.934;2024-03-22T03:46:48;7.10;36.90
15450;DHT22;7826;49.784;9.934;2024-03-22T03:49:14;7.10;38.10
15450;DHT22;7826;49.784;9.934;2024-03-22T03:51:40;7.00;39.90
15450;DHT22;7826;49.784;9.934;2024-03-22T03:54:06;7.10;38.60
15450;DHT22;7826;49.784;9.934;2024-03-22T03:56:32;7.00;41.30
15450;DHT22;7826;49.784;9.934;2024-03-22T03:58:58;7.10;35.10
15450;DHT22;7826;49.784;9.934;2024-03-22T04:01:25;7.10;37.10
15450;DHT22;7826;49.784;9.934;2024-03-22T04:03:51;7.00;40.40
15450;DHT22;7826;49.784;9.934;2024-03-22T04:06:17;7.00;38.20
15450;DHT22;7826;49.784;9.934;2024-03-22T04:08:43;7.00;35.80
15450;DHT22;7826;49.784;9.934;2024-03-22T04:11:09;7.00;39.50
15450;DHT22;7826;49.784;9.934;2024-03-22T04:13:37;7.00;36.60
15450;DHT22;7826;49.784;9.934;2024-03-22T04:16:03;7.10;33.80
15450;DHT22;7826;49.784;9.934;2024-03-22T04:18:30;7.10;30.20
15450;DHT22;7826;49.784;9.934;2024-03-22T04:20:58;7.20;27.70
15450;DHT22;7826;49.784;9.934;2024-03-22T04:23:25;7.20;24.50
15450;DHT22;7826;49.784;9.934;2024-03-22T04:25:53;7.30;19.80
15450;DHT22;7826;49.784;9.934;2024-03-22T04:28:19;7.30;21.70
15450;DHT22;7826;49.784;9.934;2024-03-22T04:31:07;7.30;17.60
15450;DHT22;7826;49.784;9.934;2024-03-22T04:33:35;7.40;15.40
15450;DHT22;7826;49.784;9.934;2024-03-22T04:36:02;7.30;17.00
15450;DHT22;7826;49.784;9.934;2024-03-22T04:38:29;7.30;17.00
15450;DHT22;7826;49.784;9.934;2024-03-22T04:40:56;7.30;18.60
15450;DHT22;7826;49.784;9.934;2024-03-22T04:43:23;7.30;15.20
15450;DHT22;7826;49.784;9.934;2024-03-22T04:45:50;7.30;18.30
15450;DHT22;7826;49.784;9.934;2024-03-22T04:48:18;7.30;16.20
15450;DHT22;7826;49.784;9.934;2024-03-22T04:50:48;7.30;14.90
15450;DHT22;7826;49.784;9.934;2024-03-22T04:53:17;7.30;16.20
15450;DHT22;7826;49.784;9.934;2024-03-22T04:55:44;7.30;18.50
15450;DHT22;7826;49.784;9.934;2024-03-22T04:58:14;7.30;21.90
15450;DHT22;7826;49.784;9.934;2024-03-22T05:00:44;7.30;19.40
15450;DHT22;7826;49.784;9.934;2024-03-22T05:03:11;7.30;18.80
15450;DHT22;7826;49.784;9.934;2024-03-22T05:05:38;7.40;18.50
15450;DHT22;7826;49.784;9.934;2024-03-22T05:08:05;7.40;11.70
15450;DHT22;7826;49.784;9.934;2024-03-22T05:10:32;7.40;11.90
15450;DHT22;7826;49.784;9.934;2024-03-22T05:12:58;7.40;10.00
15450;DHT22;7826;49.784;9.934;2024-03-22T05:15:24;7.40;15.60
15450;DHT22;7826;49.784;9.934;2024-03-22T05:17:51;7.40;13.70
15450;DHT22;7826;49.784;9.934;2024-03-22T05:20:17;7.50;10.30
15450;DHT22;7826;49.784;9.934;2024-03-22T05:22:44;7.40;10.20
15450;DHT22;7826;49.784;9.934;2024-03-22T05:25:10;7.40;12.60
15450;DHT22;7826;49.784;9.934;2024-03-22T05:27:36;7.50;7.40
15450;DHT22;7826;49.784;9.934;2024-03-22T05:30:03;7.40;12.30
15450;DHT22;7826;49.784;9.934;2024-03-22T05:32:32;7.50;7.60
15450;DHT22;7826;49.784;9.934;2024-03-22T05:34:58;7.40;15.20
15450;DHT22;7826;49.784;9.934;2024-03-22T05:37:24;7.50;10.80
15450;DHT22;7826;49.784;9.934;2024-03-22T05:39:51;7.50;9.80
15450;DHT22;7826;49.784;9.934;2024-03-22T05:42:17;7.40;11.50
15450;DHT22;7826;49.784;9.934;2024-03-22T05:44:44;7.60;7.00
15450;DHT22;7826;49.784;9.934;2024-03-22T05:47:11;7.50;13.60
15450;DHT22;7826;49.784;9.934;2024-03-22T05:49:37;7.60;8.40
15450;DHT22;7826;49.784;9.934;2024-03-22T05:52:03;7.60;8.50
15450;DHT22;7826;49.784;9.934;2024-03-22T05:54:29;7.60;8.70
15450;DHT22;7826;49.784;9.934;2024-03-22T05:56:56;7.70;1.00
15450;DHT22;7826;49.784;9.934;2024-03-22T05:59:22;7.70;5.90
15450;DHT22;7826;49.784;9.934;2024-03-22T06:01:48;7.70;5.40
15450;DHT22;7826;49.784;9.934;2024-03-22T06:04:14;7.70;1.00
15450;DHT22;7826;49.784;9.934;2024-03-22T06:06:40;7.80;1.00
15450;DHT22;7826;49.784;9.934;2024-03-22T06:09:06;7.90;2.30
15450;DHT22;7826;49.784;9.934;2024-03-22T06:11:37;7.90;1.00
15450;DHT22;7826;49.784;9.934;2024-03-22T06:14:03;7.90;1.00
15450;DHT22;7826;49.784;9.934;2024-03-22T06:16:30;8.00;1.00
15450;DHT22;7826;49.784;9.934;2024-03-22T06:18:56;7.90;1.00
15450;DHT22;7826;49.784;9.934;2024-03-22T06:21:22;8.00;1.00
15450;DHT22;7826;49.784;9.934;2024-03-22T06:23:51;8.00;1.00
15450;DHT22;7826;49.784;9.934;2024-03-22T06:26:18;8.10;1.00
15450;DHT22;7826;49.784;9.934;2024-03-22T06:28:44;8.00;1.00
15450;DHT22;7826;49.784;9.934;2024-03-22T06:31:10;8.10;1.00
15450;DHT22;7826;49.784;9.934;2024-03-22T06:33:37;8.10;1.00
15450;DHT22;7826;49.784;9.934;2024-03-22T06:36:03;8.10;1.00
15450;DHT22;7826;49.784;9.934;2024-03-22T06:38:29;8.10;1.00
15450;DHT22;7826;49.784;9.934;2024-03-22T06:40:55;8.20;1.00
15450;DHT22;7826;49.784;9.934;2024-03-22T06:43:21;8.20;1.00
15450;DHT22;7826;49.784;9.934;2024-03-22T06:45:48;8.10;1.00
15450;DHT22;7826;49.784;9.934;2024-03-22T06:48:14;8.30;1.00
15450;DHT22;7826;49.784;9.934;2024-03-22T06:50:43;8.30;1.00
15450;DHT22;7826;49.784;9.934;2024-03-22T06:53:09;8.30;1.00
15450;DHT22;7826;49.784;9.934;2024-03-22T06:55:38;8.30;1.00
15450;DHT22;7826;49.784;9.934;2024-03-22T06:58:04;8.40;1.00
15450;DHT22;7826;49.784;9.934;2024-03-22T07:00:30;8.40;1.00
15450;DHT22;7826;49.784;9.934;2024-03-22T07:02:56;8.60;1.00
15450;DHT22;7826;49.784;9.934;2024-03-22T07:05:23;8.70;1.00
15450;DHT22;7826;49.784;9.934;2024-03-22T07:07:49;8.70;1.00
15450;DHT22;7826;49.784;9.934;2024-03-22T07:10:21;8.80;1.00
15450;DHT22;7826;49.784;9.934;2024-03-22T07:12:49;8.80;1.00
15450;DHT22;7826;49.784;9.934;2024-03-22T07:15:15;8.80;1.00
15450;DHT22;7826;49.784;9.934;2024-03-22T07:17:41;8.90;1.00
15450;DHT22;7826;49.784;9.934;2024-03-22T07:20:07;8.90;1.00
15450;DHT22;7826;49.784;9.934;2024-03-22T07:22:34;8.90;1.00
15450;DHT22;7826;49.784;9.934;2024-03-22T07:25:00;9.00;1.00
15450;DHT22;7826;49.784;9.934;2024-03-22T07:27:26;9.00;1.00
15450;DHT22;7826;49.784;9.934;2024-03-22T07:29:55;9.00;1.00
15450;DHT22;7826;49.784;9.934;2024-03-22T07:32:21;9.10;1.00
15450;DHT22;7826;49.784;9.934;2024-03-22T07:34:48;9.20;1.00
15450;DHT22;7826;49.784;9.934;2024-03-22T07:37:14;9.30;1.00
15450;DHT22;7826;49.784;9.934;2024-03-22T07:39:40;9.30;1.00
15450;DHT22;7826;49.784;9.934;2024-03-22T07:42:06;9.30;1.00
15450;DHT22;7826;49.784;9.934;2024-03-22T07:44:32;9.40;1.00
15450;DHT22;7826;49.784;9.934;2024-03-22T07:46:59;9.30;1.00
15450;DHT22;7826;49.784;9.934;2024-03-22T07:49:25;9.40;1.00
15450;DHT22;7826;49.784;9.934;2024-03-22T07:51:51;9.50;1.00
15450;DHT22;7826;49.784;9.934;2024-03-22T07:54:19;9.50;1.00
15450;DHT22;7826;49.784;9.934;2024-03-22T07:56:46;9.50;1.00
15450;DHT22;7826;49.784;9.934;2024-03-22T07:59:12;9.60;1.00
15450;DHT22;7826;49.784;9.934;2024-03-22T08:01:38;9.60;1.00
15450;DHT22;7826;49.784;9.934;2024-03-22T08:04:04;9.60;1.00
15450;DHT22;7826;49.784;9.934;2024-03-22T08:06:30;9.60;1.00
15450;DHT22;7826;49.784;9.934;2024-03-22T08:08:57;9.70;1.00
15450;DHT22;7826;49.784;9.934;2024-03-22T08:11:23;9.70;1.00
15450;DHT22;7826;49.784;9.934;2024-03-22T08:13:49;9.70;1.00
15450;DHT22;7826;49.784;9.934;2024-03-22T08:16:15;10.00;1.00
15450;DHT22;7826;49.784;9.934;2024-03-22T08:18:41;9.80;1.00
15450;DHT22;7826;49.784;9.934;2024-03-22T08:21:07;9.80;1.00
15450;DHT22;7826;49.784;9.934;2024-03-22T08:23:33;9.80;1.00
15450;DHT22;7826;49.784;9.934;2024-03-22T08:26:00;9.80;1.00
15450;DHT22;7826;49.784;9.934;2024-03-22T08:28:26;9.90;1.00
15450;DHT22;7826;49.784;9.934;2024-03-22T08:30:52;9.80;1.00
15450;DHT22;7826;49.784;9.934;2024-03-22T08:33:18;9.90;1.00
15450;DHT22;7826;49.784;9.934;2024-03-22T08:35:45;9.80;1.00
15450;DHT22;7826;49.784;9.934;2024-03-22T08:38:11;9.80;1.00
15450;DHT22;7826;49.784;9.934;2024-03-22T08:40:40;9.80;1.00
15450;DHT22;7826;49.784;9.934;2024-03-22T08:43:06;9.80;1.00
15450;DHT22;7826;49.784;9.934;2024-03-22T08:45:35;9.80;1.00
15450;DHT22;7826;49.784;9.934;2024-03-22T08:48:02;9.80;1.00
15450;DHT22;7826;49.784;9.934;2024-03-22T08:50:28;9.80;1.00
15450;DHT22;7826;49.784;9.934;2024-03-22T08:52:54;10.00;1.00
15450;DHT22;7826;49.784;9.934;2024-03-22T08:55:20;10.00;1.00
15450;DHT22;7826;49.784;9.934;2024-03-22T08:57:46;10.10;1.00
15450;DHT22;7826;49.784;9.934;2024-03-22T09:00:13;10.10;1.00
15450;DHT22;7826;49.784;9.934;2024-03-22T09:02:39;10.20;1.00
15450;DHT22;7826;49.784;9.934;2024-03-22T09:05:06;10.30;1.00
15450;DHT22;7826;49.784;9.934;2024-03-22T09:07:32;10.40;1.00
15450;DHT22;7826;49.784;9.934;2024-03-22T09:09:58;10.40;1.00
15450;DHT22;7826;49.784;9.934;2024-03-22T09:12:24;10.50;1.00
15450;DHT22;7826;49.784;9.934;2024-03-22T09:14:50;10.60;1.00
15450;DHT22;7826;49.784;9.934;2024-03-22T09:17:16;10.50;1.00
15450;DHT22;7826;49.784;9.934;2024-03-22T09:19:43;10.60;1.00
15450;DHT22;7826;49.784;9.934;2024-03-22T09:22:09;10.60;1.00
15450;DHT22;7826;49.784;9.934;2024-03-22T09:24:35;10.70;1.00
15450;DHT22;7826;49.784;9.934;2024-03-22T09:27:01;10.80;1.00
15450;DHT22;7826;49.784;9.934;2024-03-22T09:29:30;10.80;1.00
15450;DHT22;7826;49.784;9.934;2024-03-22T09:31:56;10.80;1.00
15450;DHT22;7826;49.784;9.934;2024-03-22T09:34:22;10.90;1.00
15450;DHT22;7826;49.784;9.934;2024-03-22T09:36:48;11.00;1.00
15450;DHT22;7826;49.784;9.934;2024-03-22T09:39:14;11.00;1.00
15450;DHT22;7826;49.784;9.934;2024-03-22T09:41:44;11.00;1.00
15450;DHT22;7826;49.784;9.934;2024-03-22T09:44:14;10.80;1.00
15450;DHT22;7826;49.784;9.934;2024-03-22T09:46:42;10.90;1.00
15450;DHT22;7826;49.784;9.934;2024-03-22T09:49:12;11.00;1.00
15450;DHT22;7826;49.784;9.934;2024-03-22T09:51:39;11.00;1.00
15450;DHT22;7826;49.784;9.934;2024-03-22T09:54:08;11.10;1.00
15450;DHT22;7826;49.784;9.934;2024-03-22T09:56:35;11.10;1.00
15450;DHT22;7826;49.784;9.934;2024-03-22T09:59:04;11.20;1.00
15450;DHT22;7826;49.784;9.934;2024-03-22T10:01:30;11.30;1.00
15450;DHT22;7826;49.784;9.934;2024-03-22T10:03:57;11.40;1.00
15450;DHT22;7826;49.784;9.934;2024-03-22T10:06:24;11.40;1.00
15450;DHT22;7826;49.784;9.934;2024-03-22T10:08:50;11.40;1.00
15450;DHT22;7826;49.784;9.934;2024-03-22T10:11:16;11.50;1.00
15450;DHT22;7826;49.784;9.934;2024-03-22T10:13:42;11.60;1.00
15450;DHT22;7826;49.784;9.934;2024-03-22T10:16:08;11.70;1.00
15450;DHT22;7826;49.784;9.934;2024-03-22T10:18:35;11.90;1.00
15450;DHT22;7826;49.784;9.934;2024-03-22T10:21:05;12.00;1.00
15450;DHT22;7826;49.784;9.934;2024-03-22T10:23:31;12.20;1.00
15450;DHT22;7826;49.784;9.934;2024-03-22T10:25:58;12.30;1.00
15450;DHT22;7826;49.784;9.934;2024-03-22T10:28:25;12.50;1.00
15450;DHT22;7826;49.784;9.934;2024-03-22T10:30:52;12.80;1.00
15450;DHT22;7826;49.784;9.934;2024-03-22T10:33:19;12.80;1.00
15450;DHT22;7826;49.784;9.934;2024-03-22T10:35:51;13.00;1.00
15450;DHT22;7826;49.784;9.934;2024-03-22T10:38:22;13.10;1.00
15450;DHT22;7826;49.784;9.934;2024-03-22T10:40:48;13.20;1.00
15450;DHT22;7826;49.784;9.934;2024-03-22T10:43:15;13.20;1.00
15450;DHT22;7826;49.784;9.934;2024-03-22T10:45:42;13.00;1.00
15450;DHT22;7826;49.784;9.934;2024-03-22T10:48:11;13.10;1.00
15450;DHT22;7826;49.784;9.934;2024-03-22T10:50:41;12.90;1.00
15450;DHT22;7826;49.784;9.934;2024-03-22T10:53:15;12.80;1.00
15450;DHT22;7826;49.784;9.934;2024-03-22T10:55:47;12.80;1.00
15450;DHT22;7826;49.784;9.934;2024-03-22T10:58:16;12.70;1.00
15450;DHT22;7826;49.784;9.934;2024-03-22T11:00:43;12.70;1.00
15450;DHT22;7826;49.784;9.934;2024-03-22T11:03:10;12.70;1.00
15450;DHT22;7826;49.784;9.934;2024-03-22T11:05:49;12.70;1.00
15450;DHT22;7826;49.784;9.934;2024-03-22T11:08:26;12.70;1.00
15450;DHT22;7826;49.784;9.934;2024-03-22T11:10:54;12.90;1.00
15450;DHT22;7826;49.784;9.934;2024-03-22T11:13:20;13.00;1.00
15450;DHT22;7826;49.784;9.934;2024-03-22T11:15:50;13.00;1.00
15450;DHT22;7826;49.784;9.934;2024-03-22T11:18:17;13.00;1.00
15450;DHT22;7826;49.784;9.934;2024-03-22T11:20:44;12.90;1.00
15450;DHT22;7826;49.784;9.934;2024-03-22T11:23:13;12.90;1.00
15450;DHT22;7826;49.784;9.934;2024-03-22T11:25:40;12.70;1.00
15450;DHT22;7826;49.784;9.934;2024-03-22T11:28:06;12.80;1.00
15450;DHT22;7826;49.784;9.934;2024-03-22T11:30:34;12.80;1.00
15450;DHT22;7826;49.784;9.934;2024-03-22T11:33:06;12.70;1.00
15450;DHT22;7826;49.784;9.934;2024-03-22T11:35:33;12.70;1.00
15450;DHT22;7826;49.784;9.934;2024-03-22T11:38:00;12.60;1.00
15450;DHT22;7826;49.784;9.934;2024-03-22T11:40:26;12.50;1.00
15450;DHT22;7826;49.784;9.934;2024-03-22T11:42:54;12.60;1.00
15450;DHT22;7826;49.784;9.934;2024-03-22T11:45:21;12.50;1.00
15450;DHT22;7826;49.784;9.934;2024-03-22T11:47:49;12.50;1.00
15450;DHT22;7826;49.784;9.934;2024-03-22T11:50:15;12.50;1.00
15450;DHT22;7826;49.784;9.934;2024-03-22T11:52:42;12.30;1.00
15450;DHT22;7826;49.784;9.934;2024-03-22T11:55:09;12.30;1.00
15450;DHT22;7826;49.784;9.934;2024-03-22T11:57:36;12.40;1.00
15450;DHT22;7826;49.784;9.934;2024-03-22T12:00:04;12.30;1.00
15450;DHT22;7826;49.784;9.934;2024-03-22T12:02:38;12.30;1.00
15450;DHT22;7826;49.784;9.934;2024-03-22T12:05:05;12.10;1.00
15450;DHT22;7826;49.784;9.934;2024-03-22T12:07:32;12.10;1.00
15450;DHT22;7826;49.784;9.934;2024-03-22T12:10:00;12.00;1.00
15450;DHT22;7826;49.784;9.934;2024-03-22T12:12:26;12.00;1.00
15450;DHT22;7826;49.784;9.934;2024-03-22T12:14:53;11.90;1.00
15450;DHT22;7826;49.784;9.934;2024-03-22T12:17:19;11.80;1.00
15450;DHT22;7826;49.784;9.934;2024-03-22T12:19:45;11.80;1.00
15450;DHT22;7826;49.784;9.934;2024-03-22T12:22:11;11.80;1.00
15450;DHT22;7826;49.784;9.934;2024-03-22T12:24:38;11.90;1.00
15450;DHT22;7826;49.784;9.934;2024-03-22T12:27:04;11.60;14.50
15450;DHT22;7826;49.784;9.934;2024-03-22T12:29:33;11.60;15.70
15450;DHT22;7826;49.784;9.934;2024-03-22T12:32:00;11.60;16.30
15450;DHT22;7826;49.784;9.934;2024-03-22T12:34:28;11.50;1.00
15450;DHT22;7826;49.784;9.934;2024-03-22T12:36:55;11.20;1.00
15450;DHT22;7826;49.784;9.934;2024-03-22T12:39:21;11.00;1.00
15450;DHT22;7826;49.784;9.934;2024-03-22T12:41:48;11.00;1.00
15450;DHT22;7826;49.784;9.934;2024-03-22T12:44:14;11.00;1.00
15450;DHT22;7826;49.784;9.934;2024-03-22T12:46:40;10.80;1.00
15450;DHT22;7826;49.784;9.934;2024-03-22T12:49:11;10.80;1.00
15450;DHT22;7826;49.784;9.934;2024-03-22T12:51:37;10.90;3.70
15450;DHT22;7826;49.784;9.934;2024-03-22T12:54:04;10.80;3.30
15450;DHT22;7826;49.784;9.934;2024-03-22T12:56:31;10.80;6.70
15450;DHT22;7826;49.784;9.934;2024-03-22T12:58:58;10.80;9.70
15450;DHT22;7826;49.784;9.934;2024-03-22T13:01:24;10.50;11.60
15450;DHT22;7826;49.784;9.934;2024-03-22T13:03:50;10.60;12.10
15450;DHT22;7826;49.784;9.934;2024-03-22T13:06:16;10.60;14.90
15450;DHT22;7826;49.784;9.934;2024-03-22T13:08:42;10.60;9.20
15450;DHT22;7826;49.784;9.934;2024-03-22T13:11:08;10.70;11.60
15450;DHT22;7826;49.784;9.934;2024-03-22T13:13:35;10.70;18.20
15450;DHT22;7826;49.784;9.934;2024-03-22T13:16:02;10.50;43.50
15450;DHT22;7826;49.784;9.934;2024-03-22T13:18:29;10.40;44.00
15450;DHT22;7826;49.784;9.934;2024-03-22T13:20:55;10.50;37.90
15450;DHT22;7826;49.784;9.934;2024-03-22T13:23:22;10.60;36.70
15450;DHT22;7826;49.784;9.934;2024-03-22T13:25:48;10.60;59.70
15450;DHT22;7826;49.784;9.934;2024-03-22T13:28:15;10.50;63.60
15450;DHT22;7826;49.784;9.934;2024-03-22T13:30:46;10.40;76.20
15450;DHT22;7826;49.784;9.934;2024-03-22T13:33:12;10.50;87.30
15450;DHT22;7826;49.784;9.934;2024-03-22T13:35:38;10.60;83.40
15450;DHT22;7826;49.784;9.934;2024-03-22T13:38:07;10.80;64.50
15450;DHT22;7826;49.784;9.934;2024-03-22T13:40:39;10.80;83.20
15450;DHT22;7826;49.784;9.934;2024-03-22T13:43:06;10.90;99.90
15450;DHT22;7826;49.784;9.934;2024-03-22T13:45:38;11.00;89.80
15450;DHT22;7826;49.784;9.934;2024-03-22T13:48:10;11.00;91.90
15450;DHT22;7826;49.784;9.934;2024-03-22T13:50:37;11.10;73.10
15450;DHT22;7826;49.784;9.934;2024-03-22T13:53:03;11.20;88.10
15450;DHT22;7826;49.784;9.934;2024-03-22T13:55:29;11.30;79.30
15450;DHT22;7826;49.784;9.934;2024-03-22T13:57:55;11.30;90.50
15450;DHT22;7826;49.784;9.934;2024-03-22T14:00:21;11.30;77.60
15450;DHT22;7826;49.784;9.934;2024-03-22T14:02:50;11.30;78.00
15450;DHT22;7826;49.784;9.934;2024-03-22T14:05:19;11.40;77.60
15450;DHT22;7826;49.784;9.934;2024-03-22T14:07:45;11.50;64.60
15450;DHT22;7826;49.784;9.934;2024-03-22T14:10:11;11.40;57.50
15450;DHT22;7826;49.784;9.934;2024-03-22T14:12:42;11.30;63.40
15450;DHT22;7826;49.784;9.934;2024-03-22T14:15:09;11.20;75.50
15450;DHT22;7826;49.784;9.934;2024-03-22T14:17:35;11.20;68.10
15450;DHT22;7826;49.784;9.934;2024-03-22T14:20:01;11.20;75.80
15450;DHT22;7826;49.784;9.934;2024-03-22T14:22:28;11.30;76.10
15450;DHT22;7826;49.784;9.934;2024-03-22T14:24:55;11.20;74.40
15450;DHT22;7826;49.784;9.934;2024-03-22T14:27:21;11.20;86.50
15450;DHT22;7826;49.784;9.934;2024-03-22T14:29:47;11.30;62.80
15450;DHT22;7826;49.784;9.934;2024-03-22T14:32:13;11.20;81.80
15450;DHT22;7826;49.784;9.934;2024-03-22T14:34:39;11.10;80.80
15450;DHT22;7826;49.784;9.934;2024-03-22T14:37:06;11.10;61.00
15450;DHT22;7826;49.784;9.934;2024-03-22T14:39:32;11.10;64.40
15450;DHT22;7826;49.784;9.934;2024-03-22T14:41:59;11.10;75.60
15450;DHT22;7826;49.784;9.934;2024-03-22T14:44:25;11.10;69.30
15450;DHT22;7826;49.784;9.934;2024-03-22T14:46:51;11.10;67.70
15450;DHT22;7826;49.784;9.934;2024-03-22T14:49:17;11.10;82.80
15450;DHT22;7826;49.784;9.934;2024-03-22T14:51:43;11.10;74.70
15450;DHT22;7826;49.784;9.934;2024-03-22T14:54:10;11.00;81.60
15450;DHT22;7826;49.784;9.934;2024-03-22T14:56:36;11.10;75.80
15450;DHT22;7826;49.784;9.934;2024-03-22T14:59:02;11.00;91.20
15450;DHT22;7826;49.784;9.934;2024-03-22T15:01:28;11.00;90.50
15450;DHT22;7826;49.784;9.934;2024-03-22T15:03:54;11.00;93.40
15450;DHT22;7826;49.784;9.934;2024-03-22T15:06:21;11.10;83.40
15450;DHT22;7826;49.784;9.934;2024-03-22T15:08:47;11.00;84.60
15450;DHT22;7826;49.784;9.934;2024-03-22T15:11:13;11.00;93.10
15450;DHT22;7826;49.784;9.934;2024-03-22T15:13:39;10.90;97.30
15450;DHT22;7826;49.784;9.934;2024-03-22T15:16:05;10.90;88.50
15450;DHT22;7826;49.784;9.934;2024-03-22T15:18:32;10.80;72.10
15450;DHT22;7826;49.784;9.934;2024-03-22T15:20:58;10.90;78.70
15450;DHT22;7826;49.784;9.934;2024-03-22T15:23:24;11.00;78.00
15450;DHT22;7826;49.784;9.934;2024-03-22T15:25:50;10.90;75.80
15450;DHT22;7826;49.784;9.934;2024-03-22T15:28:16;11.00;71.50
15450;DHT22;7826;49.784;9.934;2024-03-22T15:30:42;11.00;67.40
15450;DHT22;7826;49.784;9.934;2024-03-22T15:33:10;10.90;73.30
15450;DHT22;7826;49.784;9.934;2024-03-22T15:35:37;10.90;77.40
15450;DHT22;7826;49.784;9.934;2024-03-22T15:38:04;10.90;67.80
15450;DHT22;7826;49.784;9.934;2024-03-22T15:40:31;10.80;65.50
15450;DHT22;7826;49.784;9.934;2024-03-22T15:43:00;10.80;69.30
15450;DHT22;7826;49.784;9.934;2024-03-22T15:45:27;10.80;80.70
15450;DHT22;7826;49.784;9.934;2024-03-22T15:47:53;10.80;81.00
15450;DHT22;7826;49.784;9.934;2024-03-22T15:50:19;10.70;81.30
15450;DHT22;7826;49.784;9.934;2024-03-22T15:52:46;10.70;81.90
15450;DHT22;7826;49.784;9.934;2024-03-22T15:55:12;10.70;91.10
15450;DHT22;7826;49.784;9.934;2024-03-22T15:57:38;10.70;91.20
15450;DHT22;7826;49.784;9.934;2024-03-22T16:00:05;10.70;89.10